West Leipsic, Ohio
Current Conditions -  °F | °C
As of 10:53 AM on Monday 26 Jan 2015 (Local Time) from KFDY Reporting Station
Light Snow Light Snow  
Wind Chill:   Ceiling: 1200
Heat Index: 17°   Visibility: 5mi
Dew Point: 10°   Wind: 9mph
Humidity: 74%   Direction: 360°N
Pressure: 29.92"   Gusts: NA
Location:  41.1137°N, 83.9935°W
Report Text: KFDY 261553Z AUTO 36008KT 5SM -SN OVC012 M08/M12 A2992 RMK AO2 SLP142 P0000 T10831122
Loading
Personal Weather Stations






























Interactive Weather Map New forecast layout! Learn more

10-Day Weather Forecast

Advertisements
Track Severe Weather on mobile